Time;durP1;ratioP1;P1;durP2;ratioP2;P2;SDS_P1;SDS_P2;PMS_P1;PMS_P2;Temp;Humidity;BMP_temperature;BMP_pressure;BME280_temperature;BME280_humidity;BME280_pressure;Samples;Min_cycle;Max_cycle;Signal;HPM_P1;HPM_P2
2023/10/05 00:07:05;;;;;;;6.50;2.07;;;;;13.20;101912.00;;;;9899097;29;20303;-80
2023/10/05 00:12:08;;;;;;;7.67;2.80;;;;;13.20;101903.00;;;;9861325;29;20219;-80
2023/10/05 00:17:10;;;;;;;8.27;2.30;;;;;13.10;101916.00;;;;9928472;29;20223;-80
2023/10/05 00:22:12;;;;;;;12.97;3.03;;;;;13.10;101920.00;;;;9887999;29;20222;-82
2023/10/05 00:27:15;;;;;;;8.53;1.80;;;;;13.10;101925.00;;;;9900302;29;20222;-83
2023/10/05 00:32:35;;;;;;;5.00;2.03;;;;;13.00;101919.00;;;;9900086;29;20313;-81
2023/10/05 00:37:37;;;;;;;8.13;2.77;;;;;13.00;101921.00;;;;9900462;29;20216;-81
2023/10/05 00:42:39;;;;;;;10.00;2.43;;;;;12.90;101922.00;;;;9884768;29;20230;-81
2023/10/05 00:47:42;;;;;;;9.17;2.37;;;;;12.90;101922.00;;;;9885684;29;20207;-82
2023/10/05 00:52:45;;;;;;;8.27;2.50;;;;;13.00;101925.00;;;;9868180;29;20214;-81
2023/10/05 00:57:48;;;;;;;10.63;3.03;;;;;13.00;101922.00;;;;9904984;29;20294;-81
2023/10/05 01:03:17;;;;;;;7.83;2.30;;;;;13.00;101922.00;;;;9896084;29;20215;-82
2023/10/05 01:08:23;;;;;;;4.90;2.07;;;;;13.00;101921.00;;;;9902848;29;20276;-81
2023/10/05 01:13:33;;;;;;;7.73;2.37;;;;;13.00;101908.00;;;;9930495;29;20408;-81
2023/10/05 01:18:36;;;;;;;8.30;2.70;;;;;12.90;101905.00;;;;9884757;29;20287;-82
2023/10/05 01:23:38;;;;;;;9.63;2.53;;;;;12.90;101911.00;;;;9869423;29;20229;-81
2023/10/05 01:28:41;;;;;;;8.30;2.33;;;;;12.80;101914.00;;;;9904173;29;20268;-81
2023/10/05 01:33:44;;;;;;;8.23;2.27;;;;;12.80;101904.00;;;;9924470;29;20235;-84
2023/10/05 01:38:47;;;;;;;11.17;2.70;;;;;12.70;101899.00;;;;9900668;29;20229;-84
2023/10/05 01:43:49;;;;;;;9.00;3.00;;;;;12.70;101908.00;;;;9923623;29;20780;-83
2023/10/05 01:48:56;;;;;;;6.13;2.83;;;;;12.80;101908.00;;;;9873629;29;20662;-83
2023/10/05 01:54:05;;;;;;;7.03;2.20;;;;;12.80;101905.00;;;;9896281;29;20215;-83
2023/10/05 01:59:07;;;;;;;9.40;3.13;;;;;12.90;101908.00;;;;9908560;29;20569;-84
2023/10/05 02:04:10;;;;;;;8.70;2.43;;;;;13.00;101902.00;;;;9885924;29;20221;-83
2023/10/05 02:09:14;;;;;;;7.10;2.70;;;;;13.00;101899.00;;;;9884510;29;20207;-85
2023/10/05 02:14:16;;;;;;;5.47;2.90;;;;;13.10;101898.00;;;;9897608;29;20214;-84
2023/10/05 02:19:19;;;;;;;9.67;2.77;;;;;13.10;101896.00;;;;9875503;29;20227;-83
2023/10/05 02:24:30;;;;;;;8.03;2.80;;;;;13.10;101906.00;;;;9898386;29;20225;-83
2023/10/05 02:29:32;;;;;;;9.13;2.93;;;;;13.10;101909.00;;;;9894756;29;20219;-84
2023/10/05 03:49:22;;;;;;;8.13;2.57;;;;;12.80;101898.00;;;;5834234;24;20371;-90
2023/10/05 03:54:38;;;;;;;6.63;2.70;;;;;12.80;101890.00;;;;2969840;24;20912;-84
2023/10/05 03:59:40;;;;;;;17.90;4.03;;;;;12.70;101890.00;;;;9905022;29;20243;-84
2023/10/05 04:04:43;;;;;;;11.48;3.20;;;;;12.60;101878.00;;;;9928823;29;20206;-83
2023/10/05 04:09:45;;;;;;;11.87;4.13;;;;;12.60;101885.00;;;;9946494;29;20227;-83
2023/10/05 04:14:47;;;;;;;11.23;4.60;;;;;12.60;101875.00;;;;9943854;29;20513;-84
2023/10/05 04:19:52;;;;;;;12.73;4.63;;;;;12.60;101889.00;;;;9977776;29;20261;-83
2023/10/05 04:24:54;;;;;;;10.60;4.53;;;;;12.70;101870.00;;;;9944295;29;20207;-83
2023/10/05 04:29:57;;;;;;;14.23;3.47;;;;;12.70;101861.00;;;;9915632;29;20215;-82
2023/10/05 04:35:01;;;;;;;13.43;3.77;;;;;12.70;101872.00;;;;9932695;29;20208;-83
2023/10/05 04:40:07;;;;;;;8.70;3.10;;;;;12.80;101864.00;;;;9960425;29;20291;-84
2023/10/05 04:45:14;;;;;;;9.90;3.60;;;;;12.80;101883.00;;;;9915286;29;20779;-84
2023/10/05 04:50:17;;;;;;;9.13;3.23;;;;;12.80;101877.00;;;;9937782;29;20807;-83
2023/10/05 04:55:31;;;;;;;10.73;3.10;;;;;12.80;101876.00;;;;9918370;29;20214;-84
2023/10/05 05:11:19;;;;;;;8.97;3.57;;;;;12.70;101885.00;;;;9915966;29;20210;-83
2023/10/05 05:16:21;;;;;;;12.60;3.67;;;;;12.60;101891.00;;;;9950581;29;20216;-84
2023/10/05 05:21:23;;;;;;;8.77;2.93;;;;;12.60;101891.00;;;;9917562;29;21991;-83
2023/10/05 05:26:25;;;;;;;9.97;4.00;;;;;12.60;101882.00;;;;9935316;29;20229;-84
2023/10/05 05:31:27;;;;;;;8.77;3.70;;;;;12.60;101885.00;;;;9913130;29;20237;-84
2023/10/05 05:36:29;;;;;;;11.90;3.93;;;;;12.50;101862.00;;;;9946922;29;20218;-84
2023/10/05 05:41:36;;;;;;;8.73;3.50;;;;;12.50;101861.00;;;;9933743;29;20226;-84
2023/10/05 05:46:39;;;;;;;9.10;3.80;;;;;12.40;101869.00;;;;9944756;29;20226;-83
2023/10/05 05:51:41;;;;;;;8.00;3.70;;;;;12.40;101879.00;;;;9930571;29;20216;-84
2023/10/05 05:56:43;;;;;;;10.43;4.27;;;;;12.30;101900.00;;;;9894405;29;20219;-83
2023/10/05 06:01:46;;;;;;;11.43;3.57;;;;;12.30;101902.00;;;;9902262;29;20264;-83
2023/10/05 06:06:48;;;;;;;12.50;3.80;;;;;12.30;101903.00;;;;9901257;29;20206;-83
2023/10/05 07:32:11;;;;;;;19.10;4.65;;;;;14.60;101978.00;;;;10955061;23;20347;-78
2023/10/05 07:37:13;;;;;;;11.55;4.57;;;;;14.60;101979.00;;;;9994088;29;20216;-78
2023/10/05 07:42:16;;;;;;;19.98;4.65;;;;;14.70;101987.00;;;;10018468;29;20228;-78
2023/10/05 07:47:19;;;;;;;9.27;4.50;;;;;14.60;101994.00;;;;9993936;29;20212;-76
2023/10/05 07:52:21;;;;;;;13.73;4.60;;;;;14.50;101996.00;;;;9999651;29;20983;-76
2023/10/05 07:57:23;;;;;;;10.80;4.25;;;;;14.40;102001.00;;;;9998925;29;20252;-75
2023/10/05 08:02:25;;;;;;;14.80;4.35;;;;;14.50;102006.00;;;;9995605;29;20967;-78
2023/10/05 08:07:28;;;;;;;11.93;4.20;;;;;14.60;102005.00;;;;9986414;29;20217;-77
2023/10/05 08:12:30;;;;;;;17.80;4.38;;;;;14.60;102004.00;;;;9980640;29;20222;-80
2023/10/05 08:17:33;;;;;;;10.70;4.03;;;;;14.70;102010.00;;;;9994680;29;20206;-76
2023/10/05 08:22:36;;;;;;;16.75;4.13;;;;;14.80;102011.00;;;;9984011;29;20286;-77
2023/10/05 08:27:39;;;;;;;16.95;4.57;;;;;14.90;102017.00;;;;9980505;29;20249;-77
2023/10/05 08:32:41;;;;;;;12.15;3.75;;;;;14.90;102030.00;;;;9983313;29;20217;-77
2023/10/05 08:37:47;;;;;;;10.88;3.67;;;;;15.00;102028.00;;;;9986914;29;20297;-82
2023/10/05 08:42:51;;;;;;;9.82;3.83;;;;;15.20;102042.00;;;;9968932;29;20284;-79
2023/10/05 08:47:55;;;;;;;10.50;3.90;;;;;15.40;102035.00;;;;10002269;29;20242;-78
2023/10/05 08:52:57;;;;;;;14.60;3.95;;;;;15.60;102046.00;;;;9988503;29;20216;-86
2023/10/05 08:58:03;;;;;;;11.57;4.30;;;;;15.80;102054.00;;;;9990038;29;20240;-87
2023/10/05 09:03:28;;;;;;;11.82;3.90;;;;;16.00;102059.00;;;;10000197;29;20241;-88
2023/10/05 09:08:41;;;;;;;14.25;4.10;;;;;16.00;102077.00;;;;9986588;29;20210;-87
2023/10/05 09:13:47;;;;;;;12.63;3.53;;;;;16.10;102076.00;;;;9986868;29;20213;-88
2023/10/05 09:18:51;;;;;;;7.32;3.63;;;;;16.10;102090.00;;;;9989328;29;20282;-88
2023/10/05 09:23:53;;;;;;;14.27;4.65;;;;;16.00;102101.00;;;;9981483;29;20269;-88
2023/10/05 09:29:12;;;;;;;13.68;4.05;;;;;16.00;102108.00;;;;9981015;29;20206;-86
2023/10/05 09:34:15;;;;;;;11.30;3.72;;;;;15.90;102118.00;;;;9988043;29;20210;-86
2023/10/05 09:39:19;;;;;;;11.07;3.83;;;;;16.00;102102.00;;;;9988340;29;20640;-87
2023/10/05 09:44:22;;;;;;;12.93;4.10;;;;;16.10;102107.00;;;;9981391;29;20210;-86
2023/10/05 09:49:24;;;;;;;11.25;4.05;;;;;16.20;102096.00;;;;9996050;29;20629;-86
2023/10/05 09:54:27;;;;;;;13.65;4.18;;;;;16.50;102092.00;;;;9970629;29;20940;-85
2023/10/05 09:59:31;;;;;;;8.80;3.88;;;;;16.80;102068.00;;;;9985634;29;20234;-80
2023/10/05 10:04:36;;;;;;;11.30;3.72;;;;;17.00;102069.00;;;;9977462;29;20217;-80
2023/10/05 10:09:39;;;;;;;10.43;3.80;;;;;17.20;102057.00;;;;9985563;29;20798;-80
2023/10/05 10:14:50;;;;;;;9.00;3.35;;;;;17.40;102055.00;;;;9965647;29;20245;-80
2023/10/05 10:19:56;;;;;;;11.05;3.58;;;;;17.80;102058.00;;;;9972573;29;20224;-80
2023/10/05 10:24:58;;;;;;;8.75;3.22;;;;;18.20;102056.00;;;;10000707;29;20272;-81
2023/10/05 10:30:01;;;;;;;9.43;3.90;;;;;18.60;102062.00;;;;9958980;29;20805;-82
2023/10/05 10:45:29;;;;;;;10.43;3.00;;;;;20.10;102069.00;;;;9974411;29;20221;-81
2023/10/05 10:50:37;;;;;;;9.45;2.80;;;;;20.60;102066.00;;;;9975285;29;20222;-83
2023/10/05 10:55:46;;;;;;;8.45;3.15;;;;;21.10;102064.00;;;;9945003;29;20214;-81
2023/10/05 11:01:02;;;;;;;10.05;2.55;;;;;20.90;102066.00;;;;9991440;29;20226;-81
2023/10/05 11:06:09;;;;;;;12.02;2.92;;;;;20.30;102078.00;;;;9982434;29;20588;-80
2023/10/05 11:11:19;;;;;;;7.93;2.97;;;;;20.10;102076.00;;;;9970777;29;21300;-80
2023/10/05 11:16:44;;;;;;;7.28;2.65;;;;;19.90;102082.00;;;;9955893;29;20217;-79
2023/10/05 11:21:46;;;;;;;6.80;2.70;;;;;19.70;102081.00;;;;9987176;29;20230;-80
2023/10/05 11:32:12;;;;;;;9.50;2.50;;;;;20.10;102064.00;;;;9988624;29;20803;-84
2023/10/05 11:37:38;;;;;;;14.93;3.55;;;;;20.10;102068.00;;;;9990948;29;20214;-81
2023/10/05 11:42:41;;;;;;;9.80;2.85;;;;;20.00;102071.00;;;;9969157;29;20222;-80
2023/10/05 11:47:54;;;;;;;8.15;2.78;;;;;20.10;102068.00;;;;9993903;29;20618;-80
2023/10/05 11:52:56;;;;;;;11.32;2.78;;;;;20.50;102061.00;;;;9972169;29;20794;-78
2023/10/05 11:57:57;;;;;;;7.18;2.72;;;;;21.10;102061.00;;;;9994685;29;20245;-82
2023/10/05 12:02:59;;;;;;;7.78;2.40;;;;;21.40;102056.00;;;;9950661;29;20236;-78
2023/10/05 12:08:04;;;;;;;7.20;2.78;;;;;21.80;102060.00;;;;9987144;29;20223;-80
2023/10/05 12:13:07;;;;;;;8.63;3.25;;;;;22.30;102045.00;;;;10002132;29;20213;-78
2023/10/05 12:18:12;;;;;;;6.10;2.50;;;;;22.10;102041.00;;;;9986959;29;20864;-80
2023/10/05 12:23:15;;;;;;;5.80;2.25;;;;;22.30;102033.00;;;;9988239;29;20280;-80
2023/10/05 12:28:23;;;;;;;6.32;2.25;;;;;21.60;102026.00;;;;9956060;29;20286;-80
2023/10/05 12:33:25;;;;;;;6.75;2.20;;;;;21.40;102039.00;;;;9978206;29;20241;-81
2023/10/05 12:38:27;;;;;;;9.48;1.90;;;;;21.40;102025.00;;;;10000631;29;20217;-81
2023/10/05 12:43:29;;;;;;;8.25;2.55;;;;;21.80;102029.00;;;;10000400;29;20221;-81
2023/10/05 12:48:31;;;;;;;6.90;2.05;;;;;22.10;102034.00;;;;9969749;29;20237;-81
2023/10/05 12:53:36;;;;;;;6.55;2.17;;;;;22.20;102022.00;;;;10002791;29;20214;-82
2023/10/05 12:58:39;;;;;;;3.85;1.90;;;;;22.10;102032.00;;;;9978771;29;20265;-81
2023/10/05 13:03:44;;;;;;;6.43;2.10;;;;;22.30;102019.00;;;;9991191;29;20760;-82
2023/10/05 13:08:46;;;;;;;5.38;1.80;;;;;22.20;102026.00;;;;9970475;29;20282;-81
2023/10/05 13:13:48;;;;;;;4.55;1.77;;;;;21.80;102033.00;;;;9977851;29;20333;-81
2023/10/05 13:18:50;;;;;;;10.10;2.22;;;;;21.40;102027.00;;;;9978544;29;20213;-82
2023/10/05 13:23:54;;;;;;;8.25;2.10;;;;;21.20;102029.00;;;;9983555;29;20225;-81
2023/10/05 13:29:03;;;;;;;8.48;2.10;;;;;21.10;102023.00;;;;9971166;29;20229;-83
2023/10/05 13:34:09;;;;;;;10.00;2.67;;;;;21.00;102028.00;;;;9975935;29;20227;-80
2023/10/05 13:39:14;;;;;;;5.55;2.33;;;;;20.70;102026.00;;;;9983293;29;20221;-80
2023/10/05 13:44:17;;;;;;;3.17;1.73;;;;;22.00;101993.00;;;;9984680;29;20240;-80
2023/10/05 13:49:19;;;;;;;3.85;1.80;;;;;21.70;102011.00;;;;9987869;29;20224;-79
2023/10/05 13:54:23;;;;;;;6.82;2.05;;;;;20.90;102014.00;;;;9953799;29;20249;-80
2023/10/05 13:59:26;;;;;;;5.45;1.83;;;;;20.30;102010.00;;;;9983825;29;20202;-79
2023/10/05 14:04:30;;;;;;;7.40;2.05;;;;;19.80;102009.00;;;;9955146;29;20601;-80
2023/10/05 14:09:33;;;;;;;8.35;2.25;;;;;19.90;101997.00;;;;9921152;29;20306;-79
2023/10/05 14:14:35;;;;;;;6.43;1.95;;;;;19.90;102005.00;;;;9921831;29;20351;-80
2023/10/05 14:19:38;;;;;;;9.30;1.85;;;;;19.40;102003.00;;;;9906173;29;20668;-79
2023/10/05 14:24:41;;;;;;;5.07;1.92;;;;;19.70;101955.00;;;;9974679;29;20229;-80
2023/10/05 14:29:47;;;;;;;6.78;1.95;;;;;20.00;102015.00;;;;9995084;29;20237;-79
2023/10/05 14:34:52;;;;;;;9.50;2.13;;;;;19.40;102013.00;;;;9982074;29;20213;-79
2023/10/05 14:39:56;;;;;;;7.40;2.10;;;;;19.20;102015.00;;;;9968289;29;20858;-85
2023/10/05 14:44:58;;;;;;;5.85;1.83;;;;;18.70;102022.00;;;;9951490;29;20218;-85
2023/10/05 14:50:06;;;;;;;6.32;1.80;;;;;18.50;102016.00;;;;9976360;29;20266;-84
2023/10/05 14:55:09;;;;;;;6.95;1.90;;;;;18.30;102006.00;;;;9965653;29;20213;-83
2023/10/05 15:00:14;;;;;;;4.93;1.63;;;;;18.30;102019.00;;;;9976655;29;20226;-83
2023/10/05 15:05:35;;;;;;;6.63;2.28;;;;;18.30;102009.00;;;;10632228;27;20620;-86
2023/10/05 15:10:37;;;;;;;4.53;1.67;;;;;18.30;102011.00;;;;10594014;27;20194;-82
2023/10/05 15:15:38;;;;;;;7.15;2.03;;;;;18.30;102005.00;;;;10603177;27;20191;-82
2023/10/05 15:20:40;;;;;;;5.22;1.90;;;;;18.20;102005.00;;;;10596181;27;20203;-82
2023/10/05 15:25:41;;;;;;;4.32;1.63;;;;;18.10;102003.00;;;;10584167;27;20188;-83
2023/10/05 15:30:43;;;;;;;8.60;2.42;;;;;17.90;102002.00;;;;10620941;27;20281;-85
2023/10/05 15:35:45;;;;;;;7.28;1.70;;;;;17.80;102002.00;;;;10583797;22;20259;-85
2023/10/05 15:40:46;;;;;;;6.00;2.00;;;;;17.90;101997.00;;;;10572101;23;20286;-84
2023/10/05 15:45:50;;;;;;;7.07;2.10;;;;;17.80;102001.00;;;;10528714;28;20757;-85
2023/10/05 15:50:51;;;;;;;6.97;1.90;;;;;17.80;102005.00;;;;10509613;28;20266;-78
2023/10/05 15:55:52;;;;;;;8.98;2.20;;;;;17.60;102000.00;;;;10514427;28;20203;-78
2023/10/05 16:00:55;;;;;;;6.30;2.33;;;;;17.30;101991.00;;;;10450554;28;1636874;-78
2023/10/05 16:05:59;;;;;;;5.32;2.33;;;;;17.20;101995.00;;;;10459228;28;20204;-80
2023/10/05 16:11:02;;;;;;;5.00;2.28;;;;;17.00;101986.00;;;;10495699;28;20794;-78
2023/10/05 16:16:07;;;;;;;5.20;2.10;;;;;16.80;101992.00;;;;10436829;28;20289;-79
2023/10/05 16:21:09;;;;;;;6.32;2.38;;;;;16.90;101999.00;;;;10453883;28;20556;-77
2023/10/05 16:26:11;;;;;;;5.95;1.95;;;;;16.90;101996.00;;;;10448192;28;20235;-78
2023/10/05 16:31:13;;;;;;;5.93;2.22;;;;;16.70;102008.00;;;;10464674;28;20229;-77
2023/10/05 16:36:17;;;;;;;7.72;2.53;;;;;16.60;102015.00;;;;10465009;28;20191;-81
2023/10/05 16:41:21;;;;;;;13.48;2.30;;;;;16.50;102017.00;;;;10440223;28;20774;-79
2023/10/05 16:46:22;;;;;;;6.88;1.85;;;;;16.30;102021.00;;;;10415900;28;20258;-79
2023/10/05 16:51:24;;;;;;;5.68;2.03;;;;;16.10;102018.00;;;;10376857;28;20742;-79
2023/10/05 16:56:27;;;;;;;7.93;2.50;;;;;15.90;102016.00;;;;10424422;28;20552;-79
2023/10/05 17:01:50;;;;;;;4.53;2.25;;;;;15.70;102022.00;;;;10412871;28;20214;-79
2023/10/05 17:06:52;;;;;;;8.77;2.47;;;;;15.50;102028.00;;;;10397919;28;20606;-80
2023/10/05 17:11:56;;;;;;;9.38;2.33;;;;;15.40;102021.00;;;;10398070;28;20260;-79
2023/10/05 17:16:58;;;;;;;6.75;2.50;;;;;15.20;102038.00;;;;10418202;28;20202;-81
2023/10/05 17:22:01;;;;;;;4.03;2.70;;;;;15.20;102036.00;;;;10502416;22;20226;-87
2023/10/05 17:27:05;;;;;;;7.75;2.60;;;;;15.10;102048.00;;;;10443317;28;20194;-87
2023/10/05 17:32:09;;;;;;;6.05;2.17;;;;;15.10;102046.00;;;;10446379;28;20201;-87
2023/10/05 17:37:13;;;;;;;6.97;3.10;;;;;15.10;102038.00;;;;10437962;28;20202;-86
2023/10/05 17:42:15;;;;;;;8.18;3.08;;;;;15.10;102029.00;;;;10431052;28;20293;-85
2023/10/05 17:47:17;;;;;;;9.20;3.28;;;;;15.10;102033.00;;;;10439712;28;20210;-84
2023/10/05 17:52:19;;;;;;;8.13;2.60;;;;;15.20;102035.00;;;;10567443;22;20190;-86
2023/10/05 17:57:21;;;;;;;6.47;2.70;;;;;15.20;102032.00;;;;10621788;22;20225;-87
2023/10/05 18:02:23;;;;;;;8.20;2.67;;;;;15.20;102032.00;;;;10460254;28;21226;-85
2023/10/05 18:07:26;;;;;;;6.95;2.85;;;;;15.10;102023.00;;;;10446210;28;20217;-86
2023/10/05 18:12:28;;;;;;;10.20;2.85;;;;;15.10;102020.00;;;;10444860;28;20235;-85
2023/10/05 18:17:30;;;;;;;7.75;3.17;;;;;15.00;102010.00;;;;10433866;28;20217;-86
2023/10/05 18:22:32;;;;;;;5.28;2.67;;;;;15.00;102016.00;;;;10426714;28;20224;-84
2023/10/05 18:27:34;;;;;;;7.35;2.85;;;;;14.90;102030.00;;;;10426767;28;20297;-85
2023/10/05 18:32:36;;;;;;;9.20;3.20;;;;;14.80;102032.00;;;;10439414;28;20206;-84
2023/10/05 18:37:39;;;;;;;7.57;3.13;;;;;14.70;102028.00;;;;10442497;28;20806;-85
2023/10/05 18:42:44;;;;;;;7.90;3.40;;;;;14.60;102042.00;;;;10446418;28;20214;-84
2023/10/05 18:47:46;;;;;;;9.35;3.38;;;;;14.50;102046.00;;;;10448696;28;20200;-84
2023/10/05 18:52:49;;;;;;;11.40;3.45;;;;;14.50;102046.00;;;;10439453;28;20208;-84
2023/10/05 18:57:52;;;;;;;6.90;3.28;;;;;14.40;102053.00;;;;10427907;28;20213;-84
2023/10/05 19:02:54;;;;;;;6.70;3.10;;;;;14.30;102053.00;;;;10448011;28;20225;-84
2023/10/05 19:07:56;;;;;;;8.02;3.65;;;;;14.20;102046.00;;;;10434099;28;20202;-84
2023/10/05 19:12:58;;;;;;;8.25;3.08;;;;;14.10;102050.00;;;;10430519;28;20205;-85
2023/10/05 19:18:00;;;;;;;6.60;3.20;;;;;14.10;102052.00;;;;10449822;28;20205;-84
2023/10/05 19:23:06;;;;;;;7.32;3.60;;;;;14.00;102043.00;;;;10449269;28;20320;-86
2023/10/05 19:28:09;;;;;;;7.25;3.20;;;;;13.90;102034.00;;;;10465108;28;20281;-87
2023/10/05 19:33:14;;;;;;;6.82;3.88;;;;;13.80;102035.00;;;;10422280;28;20553;-86
2023/10/05 19:38:16;;;;;;;10.25;4.20;;;;;13.80;102046.00;;;;10441157;28;20253;-87
2023/10/05 19:43:17;;;;;;;7.03;3.50;;;;;13.70;102050.00;;;;10447398;28;20214;-85
2023/10/05 19:48:21;;;;;;;7.75;3.55;;;;;13.60;102047.00;;;;10432817;28;20259;-87
2023/10/05 19:53:23;;;;;;;6.55;3.28;;;;;13.50;102040.00;;;;10437500;28;20256;-86
2023/10/05 19:58:25;;;;;;;8.18;3.70;;;;;13.40;102039.00;;;;10446622;28;20200;-85
2023/10/05 20:03:27;;;;;;;9.93;3.92;;;;;13.40;102046.00;;;;10532060;22;20296;-85
2023/10/05 20:08:31;;;;;;;7.53;3.50;;;;;13.40;102045.00;;;;10452703;28;20198;-87
2023/10/05 20:13:33;;;;;;;9.00;3.87;;;;;13.30;102042.00;;;;10484353;28;20791;-86
2023/10/05 20:18:36;;;;;;;9.02;4.40;;;;;13.20;102048.00;;;;10495107;22;20269;-86
2023/10/05 20:23:39;;;;;;;10.90;4.07;;;;;13.20;102048.00;;;;10447476;28;20218;-85
2023/10/05 20:28:44;;;;;;;7.80;3.90;;;;;13.10;102051.00;;;;10560196;23;20219;-85
2023/10/05 20:33:49;;;;;;;9.60;4.22;;;;;13.00;102057.00;;;;10566956;22;20225;-79
2023/10/05 20:38:51;;;;;;;10.13;4.53;;;;;13.00;102048.00;;;;10440064;28;20570;-81
2023/10/05 20:43:53;;;;;;;11.30;4.22;;;;;13.00;102048.00;;;;10429907;28;20224;-80
2023/10/05 20:48:55;;;;;;;8.43;3.55;;;;;12.90;102050.00;;;;10466875;28;20240;-78
2023/10/05 20:53:57;;;;;;;9.43;3.57;;;;;12.90;102065.00;;;;10462484;28;20207;-79
2023/10/05 20:59:00;;;;;;;10.52;3.83;;;;;12.80;102067.00;;;;10436608;28;20209;-81
2023/10/05 21:04:02;;;;;;;10.75;4.63;;;;;12.80;102058.00;;;;10457555;28;20213;-80
2023/10/05 21:09:09;;;;;;;8.33;5.17;;;;;12.70;102055.00;;;;10469051;28;20201;-80
2023/10/05 21:14:12;;;;;;;12.02;5.82;;;;;12.70;102052.00;;;;10464212;28;20288;-79
2023/10/05 21:19:14;;;;;;;12.43;6.50;;;;;12.70;102060.00;;;;10445339;28;20296;-78
2023/10/05 21:24:17;;;;;;;13.53;6.30;;;;;12.70;102055.00;;;;10438289;28;20230;-78
2023/10/05 21:29:20;;;;;;;15.10;5.67;;;;;12.70;102047.00;;;;10411174;28;20273;-79
2023/10/05 21:34:21;;;;;;;7.50;4.93;;;;;12.70;102042.00;;;;10425647;28;20218;-80
2023/10/05 21:39:25;;;;;;;10.00;5.17;;;;;12.70;102028.00;;;;10443241;28;20206;-87
2023/10/05 21:44:27;;;;;;;12.40;5.07;;;;;12.60;102035.00;;;;10427422;28;20229;-86
2023/10/05 21:49:29;;;;;;;12.83;4.23;;;;;12.70;102027.00;;;;10466837;28;20352;-86
2023/10/05 21:54:31;;;;;;;10.07;3.53;;;;;12.70;102029.00;;;;10515983;22;20290;-87
2023/10/05 21:59:37;;;;;;;7.50;3.63;;;;;12.70;102030.00;;;;10464892;28;20210;-86
2023/10/05 22:04:39;;;;;;;8.25;3.63;;;;;12.80;102038.00;;;;10443484;28;20218;-85
2023/10/05 22:09:42;;;;;;;9.53;4.50;;;;;12.80;102044.00;;;;10436669;28;20207;-87
2023/10/05 22:14:48;;;;;;;9.43;4.20;;;;;12.70;102048.00;;;;10568840;23;20218;-87
2023/10/05 22:19:50;;;;;;;6.67;3.57;;;;;12.60;102049.00;;;;10445398;28;20265;-87
2023/10/05 22:24:52;;;;;;;7.88;3.90;;;;;12.60;102058.00;;;;10440935;28;20224;-88
2023/10/05 22:29:54;;;;;;;8.67;4.23;;;;;12.50;102056.00;;;;10440753;28;20206;-86
2023/10/05 22:34:56;;;;;;;7.87;4.57;;;;;12.40;102055.00;;;;10445933;28;20212;-85
2023/10/05 22:39:58;;;;;;;11.10;4.60;;;;;12.40;102048.00;;;;10443310;28;20201;-87
2023/10/05 22:45:00;;;;;;;10.03;4.43;;;;;12.30;102055.00;;;;10449477;28;20518;-87
2023/10/05 22:50:03;;;;;;;8.13;3.90;;;;;12.30;102047.00;;;;10464378;28;20329;-79
2023/10/05 22:55:07;;;;;;;9.30;4.17;;;;;12.30;102046.00;;;;10436342;28;20377;-79
2023/10/05 23:00:12;;;;;;;9.13;4.90;;;;;12.20;102051.00;;;;10407065;28;20308;-79
2023/10/05 23:05:14;;;;;;;11.63;4.70;;;;;12.20;102042.00;;;;10414997;28;20234;-80
2023/10/05 23:10:16;;;;;;;8.33;4.43;;;;;12.10;102049.00;;;;10400517;28;20248;-80
2023/10/05 23:15:18;;;;;;;8.60;4.20;;;;;12.10;102049.00;;;;10417505;28;20209;-79
2023/10/05 23:20:31;;;;;;;12.70;4.07;;;;;12.10;102058.00;;;;10390802;28;20993;-79
2023/10/05 23:25:35;;;;;;;12.33;4.53;;;;;12.10;102058.00;;;;10412643;28;20280;-81
2023/10/05 23:30:40;;;;;;;9.73;4.23;;;;;12.00;102065.00;;;;10411672;28;20238;-79
2023/10/05 23:35:42;;;;;;;8.80;4.47;;;;;12.10;102058.00;;;;10438323;28;20203;-79
2023/10/05 23:40:44;;;;;;;6.37;4.10;;;;;12.00;102054.00;;;;10441151;28;20211;-80
2023/10/05 23:45:46;;;;;;;9.10;4.50;;;;;12.00;102046.00;;;;10425409;28;20214;-80
2023/10/05 23:50:48;;;;;;;11.80;4.20;;;;;12.00;102041.00;;;;10429106;28;20222;-80
2023/10/05 23:55:50;;;;;;;10.50;4.53;;;;;11.90;102032.00;;;;10420629;28;20211;-81
